createdAt,value
2023-05-04T00:02:21.256Z,0.82
2023-05-04T00:04:48.287Z,0.68
2023-05-04T00:07:15.704Z,0.90
2023-05-04T00:09:45.575Z,0.82
2023-05-04T00:12:12.632Z,0.30
2023-05-04T00:14:39.535Z,0.60
2023-05-04T00:17:08.103Z,0.40
2023-05-04T00:19:36.426Z,0.50
2023-05-04T00:22:03.712Z,0.50
2023-05-04T00:24:30.775Z,0.82
2023-05-04T00:26:57.877Z,0.70
2023-05-04T00:29:25.312Z,0.73
2023-05-04T00:31:53.008Z,0.52
2023-05-04T00:34:20.278Z,0.60
2023-05-04T00:36:49.457Z,0.68
2023-05-04T00:39:17.903Z,0.63
2023-05-04T00:41:46.063Z,0.50
2023-05-04T00:44:13.511Z,0.60
2023-05-04T00:46:41.181Z,0.45
2023-05-04T00:49:09.289Z,0.50
2023-05-04T00:51:37.605Z,0.60
2023-05-04T00:54:05.429Z,0.60
2023-05-04T00:56:34.149Z,0.80
2023-05-04T00:59:01.178Z,0.50
2023-05-04T01:01:28.805Z,0.85
2023-05-04T01:03:56.742Z,0.50
2023-05-04T01:06:42.474Z,0.55
2023-05-04T01:09:38.920Z,0.55
2023-05-04T01:12:16.658Z,0.40
2023-05-04T01:14:44.734Z,0.40
2023-05-04T01:17:12.520Z,0.60
2023-05-04T01:19:39.500Z,0.70
2023-05-04T01:22:06.418Z,0.40
2023-05-04T01:24:33.961Z,0.43
2023-05-04T01:27:10.852Z,0.30
2023-05-04T01:29:40.828Z,0.60
2023-05-04T01:32:12.393Z,0.52
2023-05-04T01:34:41.956Z,0.40
2023-05-04T01:37:09.438Z,0.30
2023-05-04T01:39:39.218Z,0.50
2023-05-04T01:42:07.828Z,0.57
2023-05-04T01:44:34.764Z,0.40
2023-05-04T01:47:02.025Z,0.50
2023-05-04T01:49:29.133Z,0.30
2023-05-04T01:51:56.949Z,0.50
2023-05-04T01:54:24.668Z,0.43
2023-05-04T01:56:51.957Z,0.40
2023-05-04T01:59:19.297Z,0.50
2023-05-04T02:01:47.396Z,0.40
2023-05-04T02:04:14.502Z,0.40
2023-05-04T02:06:44.812Z,0.60
2023-05-04T02:09:11.956Z,0.50
2023-05-04T02:11:39.036Z,0.60
2023-05-04T02:14:06.388Z,0.40
2023-05-04T02:16:33.551Z,0.40
2023-05-04T02:19:00.609Z,0.40
2023-05-04T02:21:27.476Z,0.77
2023-05-04T02:23:56.336Z,0.95
2023-05-04T02:26:23.777Z,0.50
2023-05-04T02:28:50.740Z,0.50
2023-05-04T02:31:17.872Z,0.60
2023-05-04T02:33:45.104Z,0.55
2023-05-04T02:36:12.598Z,0.47
2023-05-04T02:38:39.384Z,0.60
2023-05-04T02:41:06.404Z,0.45
2023-05-04T02:43:33.632Z,0.43
2023-05-04T02:46:00.800Z,0.60
2023-05-04T02:48:30.686Z,0.57
2023-05-04T02:50:57.795Z,0.30
2023-05-04T02:53:24.778Z,0.70
2023-05-04T02:55:51.750Z,0.40
2023-05-04T02:58:18.612Z,0.57
2023-05-04T03:00:45.716Z,0.55
2023-05-04T03:03:13.178Z,0.50
2023-05-04T03:05:40.033Z,0.85
2023-05-04T03:08:06.838Z,0.65
2023-05-04T03:10:33.791Z,3.88
2023-05-04T03:13:06.226Z,2.42
2023-05-04T03:15:33.729Z,12.85
2023-05-04T03:18:01.051Z,7.93
2023-05-04T03:20:29.197Z,8.55
2023-05-04T03:22:56.236Z,1.83
2023-05-04T03:25:23.492Z,2.20
2023-05-04T03:27:50.401Z,1.55
2023-05-04T03:30:17.435Z,0.90
2023-05-04T03:32:45.367Z,0.88
2023-05-04T03:35:13.078Z,0.70
2023-05-04T03:37:40.178Z,0.95
2023-05-04T03:40:07.818Z,0.70
2023-05-04T03:42:34.869Z,0.40
2023-05-04T03:45:04.114Z,1.08
2023-05-04T03:47:31.846Z,0.73
2023-05-04T03:49:58.630Z,1.02
2023-05-04T03:52:25.659Z,0.68
2023-05-04T03:54:52.530Z,0.80
2023-05-04T03:57:19.859Z,0.75
2023-05-04T03:59:46.894Z,0.40
2023-05-04T04:02:14.132Z,0.47
2023-05-04T04:04:41.166Z,0.63
2023-05-04T04:07:08.112Z,0.32
2023-05-04T04:09:35.087Z,0.35
2023-05-04T04:12:02.639Z,0.30
2023-05-04T04:14:29.670Z,0.50
2023-05-04T04:16:56.739Z,0.50
2023-05-04T04:19:23.862Z,0.40
2023-05-04T04:21:50.995Z,0.32
2023-05-04T04:24:17.829Z,0.55
2023-05-04T04:26:44.759Z,0.50
2023-05-04T04:29:14.604Z,0.30
2023-05-04T04:31:41.242Z,0.73
2023-05-04T04:34:08.195Z,0.57
2023-05-04T04:36:35.154Z,0.50
2023-05-04T04:39:02.038Z,0.38
2023-05-04T04:41:28.842Z,0.30
2023-05-04T04:43:55.593Z,0.45
2023-05-04T04:46:22.602Z,0.40
2023-05-04T04:48:50.311Z,0.60
2023-05-04T04:51:16.941Z,0.30
2023-05-04T04:53:43.705Z,0.60
2023-05-04T04:56:10.846Z,0.52
2023-05-04T04:58:37.690Z,0.55
2023-05-04T05:01:05.044Z,0.50
2023-05-04T05:03:32.154Z,0.40
2023-05-04T05:06:01.663Z,0.50
2023-05-04T05:08:28.425Z,0.30
2023-05-04T05:10:55.071Z,0.35
2023-05-04T05:13:21.614Z,0.47
2023-05-04T05:15:48.095Z,0.70
2023-05-04T05:18:14.620Z,0.47
2023-05-04T05:47:52.280Z,0.57
2023-05-04T10:25:35.386Z,0.30
2023-05-04T10:28:04.798Z,0.80
2023-05-04T10:30:31.518Z,0.68
2023-05-04T10:32:59.141Z,0.40
2023-05-04T10:35:27.044Z,0.60
2023-05-04T10:37:56.849Z,0.65
2023-05-04T10:40:40.030Z,0.45
2023-05-04T10:43:08.276Z,0.75
2023-05-04T10:45:39.400Z,0.60
2023-05-04T10:48:07.933Z,0.60
2023-05-04T10:51:01.053Z,0.80
2023-05-04T10:53:34.382Z,0.65
2023-05-04T10:56:01.130Z,0.77
2023-05-04T10:58:28.905Z,0.70
2023-05-04T11:00:55.586Z,0.80
2023-05-04T11:03:24.783Z,0.80
2023-05-04T11:05:54.486Z,0.50
2023-05-04T11:08:26.366Z,0.60
2023-05-04T11:11:04.342Z,0.38
2023-05-04T11:13:33.797Z,0.75
2023-05-04T11:16:00.548Z,0.60
2023-05-04T11:18:31.758Z,0.85
2023-05-04T11:20:58.783Z,0.70
2023-05-04T11:23:25.683Z,0.90
2023-05-04T11:25:52.498Z,0.55
2023-05-04T11:28:19.149Z,0.60
2023-05-04T11:30:47.619Z,0.90
2023-05-04T11:33:15.677Z,0.70
2023-05-04T11:35:44.097Z,0.70
2023-05-04T11:38:11.009Z,0.70
2023-05-04T11:40:41.031Z,0.65
2023-05-04T11:43:11.014Z,0.50
2023-05-04T11:45:40.674Z,0.90
2023-05-04T11:48:08.537Z,0.70
2023-05-04T11:50:35.630Z,0.60
2023-05-04T11:53:13.711Z,0.57
2023-05-04T11:55:41.153Z,0.70
2023-05-04T11:58:13.352Z,0.60
2023-05-04T12:00:43.178Z,0.80
2023-05-04T12:03:15.346Z,1.17
2023-05-04T12:05:50.653Z,0.65
2023-05-04T12:08:26.065Z,0.80
2023-05-04T12:11:20.616Z,0.60
2023-05-04T12:13:48.752Z,0.60
2023-05-04T12:16:18.248Z,0.88
2023-05-04T12:18:46.157Z,1.02
2023-05-04T12:21:21.435Z,0.77
2023-05-04T12:23:48.151Z,0.70
2023-05-04T12:26:17.433Z,0.90
2023-05-04T12:28:45.487Z,0.57
2023-05-04T12:31:12.050Z,0.70
2023-05-04T12:33:38.563Z,0.80
2023-05-04T12:36:06.582Z,0.90
2023-05-04T12:38:34.195Z,0.65
2023-05-04T12:41:04.252Z,0.65
2023-05-04T12:45:57.759Z,0.80
2023-05-04T12:48:25.829Z,0.60
2023-05-04T15:15:46.120Z,1.10
2023-05-04T15:18:12.727Z,1.10
2023-05-04T15:20:39.356Z,0.88
2023-05-04T15:23:12.403Z,0.88
2023-05-04T15:25:39.978Z,0.90
2023-05-04T15:28:16.463Z,1.13
2023-05-04T15:30:43.581Z,0.90
2023-05-04T15:33:10.501Z,1.23
2023-05-04T15:35:37.347Z,1.13
2023-05-04T15:38:07.052Z,0.60
2023-05-04T15:40:33.515Z,1.00
2023-05-04T15:43:00.032Z,1.10
2023-05-04T15:45:26.696Z,1.13
2023-05-04T15:47:54.365Z,1.08
2023-05-04T15:50:21.637Z,0.88
2023-05-04T15:52:48.169Z,1.20
2023-05-04T15:55:25.185Z,1.27
2023-05-04T15:57:52.827Z,0.85
2023-05-04T16:00:22.183Z,0.98
2023-05-04T16:02:48.769Z,0.77
2023-05-04T16:05:15.364Z,0.98
2023-05-04T16:07:41.926Z,0.90
2023-05-04T16:10:09.741Z,1.05
2023-05-04T16:12:36.637Z,1.00
2023-05-04T16:15:03.297Z,0.93
2023-05-04T16:17:30.852Z,0.93
2023-05-04T16:19:57.367Z,0.85
2023-05-04T16:22:23.986Z,1.13
2023-05-04T16:24:51.095Z,0.82
2023-05-04T16:27:17.609Z,0.70
2023-05-04T16:29:44.242Z,0.80
2023-05-04T16:32:10.753Z,0.90
2023-05-04T16:34:37.253Z,1.00
2023-05-04T16:37:03.757Z,0.82
2023-05-04T16:39:31.322Z,0.68
2023-05-04T16:41:58.217Z,0.70
2023-05-04T16:44:25.056Z,0.70
2023-05-04T16:46:51.911Z,0.80
2023-05-04T16:49:18.683Z,0.95
2023-05-04T16:51:45.253Z,0.90
2023-05-04T17:08:47.251Z,0.80
2023-05-04T17:11:13.841Z,1.02
2023-05-04T17:13:40.494Z,0.82
2023-05-04T17:16:07.506Z,0.70
2023-05-04T17:18:34.020Z,0.70
2023-05-04T17:21:00.532Z,0.63
2023-05-04T17:23:27.714Z,0.60
2023-05-04T17:25:54.326Z,0.75
2023-05-04T17:28:20.992Z,0.50
2023-05-04T17:30:47.550Z,0.75
2023-05-04T17:33:14.102Z,0.63
2023-05-04T17:35:40.953Z,0.70
2023-05-04T17:38:07.449Z,0.70
2023-05-04T17:40:34.030Z,0.70
2023-05-04T17:43:00.839Z,0.65
2023-05-04T17:45:27.319Z,0.70
2023-05-04T17:47:54.063Z,0.70
2023-05-04T17:50:21.230Z,0.65
2023-05-04T17:52:54.169Z,0.70
2023-05-04T17:55:23.494Z,0.75
2023-05-04T17:57:50.888Z,0.85
2023-05-04T18:00:17.583Z,0.55
2023-05-04T18:02:44.114Z,0.70
2023-05-04T18:05:10.886Z,0.77
2023-05-04T18:07:37.684Z,0.63
2023-05-04T18:10:04.969Z,0.85
2023-05-04T18:12:32.073Z,0.80
2023-05-04T18:14:58.738Z,0.93
2023-05-04T18:17:26.883Z,1.02
2023-05-04T18:19:53.456Z,0.70
2023-05-04T18:22:19.920Z,0.50
2023-05-04T18:24:49.487Z,0.40
2023-05-04T18:27:16.219Z,0.65
2023-05-04T18:29:42.857Z,0.43
2023-05-04T18:32:10.689Z,0.52
2023-05-04T18:34:37.828Z,0.70
2023-05-04T18:37:04.425Z,0.63
2023-05-04T18:39:31.830Z,0.60
2023-05-04T18:42:00.831Z,0.68
2023-05-04T18:44:27.359Z,0.60
2023-05-04T18:46:53.863Z,0.52
2023-05-04T18:49:20.559Z,0.80
2023-05-04T18:51:47.178Z,0.60
2023-05-04T18:54:15.420Z,1.35
2023-05-04T18:56:41.891Z,0.60
2023-05-04T18:59:10.677Z,1.02
2023-05-04T19:01:38.532Z,0.80
2023-05-04T19:04:05.335Z,0.60
2023-05-04T19:06:32.612Z,0.88
2023-05-04T19:08:59.752Z,0.90
2023-05-04T19:11:26.571Z,0.73
2023-05-04T19:13:53.331Z,0.90
2023-05-04T19:16:19.939Z,1.00
2023-05-04T19:18:46.637Z,1.10
2023-05-04T19:21:13.186Z,1.10
2023-05-04T19:23:39.956Z,0.80
2023-05-04T19:26:06.633Z,0.95
2023-05-04T19:28:33.156Z,0.70
2023-05-04T19:30:59.691Z,1.02
2023-05-04T19:33:36.421Z,0.52
2023-05-04T19:36:11.563Z,0.65
2023-05-04T19:38:38.238Z,0.60
2023-05-04T19:41:04.815Z,0.60
2023-05-04T19:43:32.721Z,0.70
2023-05-04T19:45:59.301Z,0.75
2023-05-04T19:48:26.002Z,0.80
2023-05-04T19:50:52.715Z,0.80
2023-05-04T19:53:19.262Z,0.63
2023-05-04T19:55:46.329Z,0.70
2023-05-04T19:58:13.574Z,0.85
2023-05-04T20:00:40.092Z,0.95
2023-05-04T20:03:07.766Z,0.63
2023-05-04T20:05:34.420Z,0.68
2023-05-04T20:08:04.111Z,0.60
2023-05-04T20:10:31.623Z,0.60
2023-05-04T20:12:58.074Z,0.75
2023-05-04T20:15:24.933Z,0.70
2023-05-04T20:17:51.478Z,0.90
2023-05-04T20:20:20.449Z,1.08
2023-05-04T20:22:49.138Z,0.90
2023-05-04T20:25:15.745Z,0.85
2023-05-04T20:27:42.307Z,0.70
2023-05-04T20:30:09.877Z,1.00
2023-05-04T20:32:36.693Z,0.50
2023-05-04T20:35:03.464Z,0.80
2023-05-04T20:37:30.023Z,0.90
2023-05-04T20:39:56.616Z,0.70
2023-05-04T20:42:23.471Z,0.80
2023-05-04T20:44:50.020Z,0.90
2023-05-04T20:47:16.534Z,0.80
2023-05-04T20:49:43.069Z,0.70
2023-05-04T20:52:09.681Z,0.77
2023-05-04T20:54:36.735Z,0.75
2023-05-04T20:57:03.423Z,0.90
2023-05-04T20:59:29.941Z,0.82
2023-05-04T21:01:56.517Z,0.70
2023-05-04T21:04:23.088Z,0.57
2023-05-04T21:06:49.566Z,0.70
2023-05-04T21:09:16.529Z,0.80
2023-05-04T21:11:43.159Z,0.77
2023-05-04T21:14:09.640Z,0.85
2023-05-04T21:16:36.633Z,0.75
2023-05-04T21:19:03.169Z,0.73
2023-05-04T21:21:29.716Z,0.93
2023-05-04T21:23:56.248Z,0.70
2023-05-04T21:26:22.962Z,0.85
2023-05-04T21:28:50.736Z,0.90
2023-05-04T21:31:17.217Z,0.80
2023-05-04T21:33:43.922Z,0.82
2023-05-04T21:36:14.280Z,0.60
2023-05-04T21:38:41.343Z,1.00
2023-05-04T21:41:15.309Z,0.68
2023-05-04T21:43:42.763Z,0.65
2023-05-04T21:46:09.574Z,0.77
2023-05-04T21:48:36.235Z,0.80
2023-05-04T21:51:02.990Z,0.80
2023-05-04T21:53:35.578Z,0.75
2023-05-04T21:56:07.768Z,0.90
2023-05-04T21:58:35.233Z,0.90
2023-05-04T22:01:01.768Z,0.70
2023-05-04T22:03:29.520Z,1.00
2023-05-04T22:05:57.724Z,1.27
2023-05-04T22:08:25.118Z,0.63
2023-05-04T22:10:53.211Z,1.02
2023-05-04T22:13:19.939Z,0.68
2023-05-04T22:15:49.719Z,0.60
2023-05-04T22:18:17.250Z,0.85
2023-05-04T22:20:43.972Z,0.95
2023-05-04T22:23:11.130Z,0.80
2023-05-04T22:25:38.033Z,0.80
2023-05-04T22:28:05.390Z,0.73
2023-05-04T22:30:31.926Z,0.80
2023-05-04T22:32:58.692Z,0.73
2023-05-04T22:35:25.407Z,0.88
2023-05-04T22:37:51.999Z,0.90
2023-05-04T22:40:18.878Z,0.75
2023-05-04T22:42:45.648Z,0.70
2023-05-04T22:45:14.290Z,0.70
2023-05-04T22:47:41.884Z,0.80
2023-05-04T22:50:09.203Z,1.05
2023-05-04T22:52:36.715Z,0.70
2023-05-04T22:55:04.180Z,1.02
2023-05-04T22:57:30.633Z,1.08
2023-05-04T22:59:57.482Z,1.08
2023-05-04T23:02:24.221Z,0.70
2023-05-04T23:04:50.846Z,1.20
2023-05-04T23:07:17.448Z,0.90
2023-05-04T23:09:45.313Z,0.93
2023-05-04T23:12:15.420Z,0.75
2023-05-04T23:17:09.431Z,0.80
2023-05-04T23:19:36.355Z,0.80
2023-05-04T23:22:02.945Z,0.77
2023-05-04T23:24:29.591Z,1.00
2023-05-04T23:26:56.135Z,0.82
2023-05-04T23:29:22.667Z,0.80
2023-05-04T23:31:49.202Z,0.70
2023-05-04T23:34:16.106Z,0.63
2023-05-04T23:36:42.565Z,0.70
2023-05-04T23:39:09.075Z,0.95
2023-05-04T23:41:35.627Z,0.90
2023-05-04T23:44:02.130Z,0.70
2023-05-04T23:46:28.775Z,0.80
2023-05-04T23:48:56.051Z,1.02
2023-05-04T23:51:22.610Z,0.77
2023-05-04T23:53:49.193Z,0.98
2023-05-04T23:56:15.880Z,0.88
2023-05-04T23:58:42.458Z,0.80
